Time;durP1;ratioP1;P1;durP2;ratioP2;P2;SDS_P1;SDS_P2;PMS_P1;PMS_P2;Temp;Humidity;BMP_temperature;BMP_pressure;BME280_temperature;BME280_humidity;BME280_pressure;Samples;Min_cycle;Max_cycle;Signal;HPM_P1;HPM_P2
2022/02/21 00:08:54;;;;;;;;;0.00;0.00;;;;;;;;2;288081702;288081702;-75
2022/02/21 00:17:10;;;;;;;;;0.00;0.00;;;;;;;;2;261074715;261074715;-75
2022/02/21 00:26:37;;;;;;;;;0.00;0.00;;;;;;;;2;288083319;288083319;-76
2022/02/21 00:34:53;;;;;;;;;0.00;0.00;;;;;;;;2;261078380;261078380;-75
2022/02/21 00:47:40;;;;;;;;;0.00;0.00;;;;;;;;2;288083146;288083146;-76
2022/02/21 00:55:55;;;;;;;;;0.00;0.00;;;;;;;;2;261077433;261077433;-75
2022/02/21 01:05:23;;;;;;;;;0.00;0.00;;;;;;;;2;288084257;288084257;-75
2022/02/21 01:13:39;;;;;;;;;0.00;0.00;;;;;;;;2;261076356;261076356;-77
2022/02/21 01:23:06;;;;;;;;;0.00;0.00;;;;;;;;2;288082985;288082985;-78
2022/02/21 01:31:22;;;;;;;;;0.00;0.00;;;;;;;;2;261077454;261077454;-75
2022/02/21 01:40:50;;;;;;;;;0.00;0.00;;;;;;;;2;288083315;288083315;-75
2022/02/21 01:49:06;;;;;;;;;0.00;0.00;;;;;;;;2;261075663;261075663;-75
2022/02/21 01:58:34;;;;;;;;;0.00;0.00;;;;;;;;2;288082142;288082142;-77
2022/02/21 02:06:49;;;;;;;;;0.00;0.00;;;;;;;;2;261075246;261075246;-75
2022/02/21 02:16:17;;;;;;;;;0.00;0.00;;;;;;;;2;288084666;288084666;-75
2022/02/21 02:24:35;;;;;;;;;0.00;0.00;;;;;;;;2;261073849;261073849;-75
2022/02/21 02:34:02;;;;;;;;;0.00;0.00;;;;;;;;2;288085399;288085399;-75
2022/02/21 02:42:18;;;;;;;;;0.00;0.00;;;;;;;;2;261075361;261075361;-75
2022/02/21 02:51:45;;;;;;;;;0.00;0.00;;;;;;;;2;288083374;288083374;-75
2022/02/21 03:00:01;;;;;;;;;0.00;0.00;;;;;;;;2;261076336;261076336;-75
2022/02/21 03:09:28;;;;;;;;;0.00;0.00;;;;;;;;2;288083599;288083599;-75
2022/02/21 03:17:44;;;;;;;;;0.00;0.00;;;;;;;;2;261071625;261071625;-75
2022/02/21 03:27:11;;;;;;;;;0.00;0.00;;;;;;;;2;288083473;288083473;-75
2022/02/21 03:35:28;;;;;;;;;0.00;0.00;;;;;;;;2;261079133;261079133;-75
2022/02/21 03:44:55;;;;;;;;;0.00;0.00;;;;;;;;2;288084223;288084223;-75
2022/02/21 03:53:10;;;;;;;;;0.00;0.00;;;;;;;;2;261077056;261077056;-75
2022/02/21 04:02:38;;;;;;;;;0.00;0.00;;;;;;;;2;288085413;288085413;-75
2022/02/21 04:10:54;;;;;;;;;0.00;0.00;;;;;;;;2;261073392;261073392;-75
2022/02/21 04:20:22;;;;;;;;;0.00;0.00;;;;;;;;2;288083753;288083753;-75
2022/02/21 04:28:38;;;;;;;;;0.00;0.00;;;;;;;;2;261072669;261072669;-75
2022/02/21 04:38:06;;;;;;;;;0.00;0.00;;;;;;;;2;288086048;288086048;-75
2022/02/21 04:46:21;;;;;;;;;0.00;0.00;;;;;;;;2;261077282;261077282;-76
2022/02/21 04:55:49;;;;;;;;;0.00;0.00;;;;;;;;2;288083558;288083558;-75
2022/02/21 05:04:04;;;;;;;;;0.00;0.00;;;;;;;;2;261078623;261078623;-75
2022/02/21 05:13:31;;;;;;;;;0.00;0.00;;;;;;;;2;288082839;288082839;-75
2022/02/21 05:21:47;;;;;;;;;0.00;0.00;;;;;;;;2;261075647;261075647;-76
2022/02/21 05:31:14;;;;;;;;;0.00;0.00;;;;;;;;2;288082794;288082794;-76
2022/02/21 05:39:30;;;;;;;;;0.00;0.00;;;;;;;;2;261079310;261079310;-76
2022/02/21 05:48:57;;;;;;;;;0.00;0.00;;;;;;;;2;288082800;288082800;-75
2022/02/21 05:57:13;;;;;;;;;0.00;0.00;;;;;;;;2;261076064;261076064;-75
2022/02/21 06:06:41;;;;;;;;;0.00;0.00;;;;;;;;2;288083294;288083294;-75
2022/02/21 06:14:56;;;;;;;;;0.00;0.00;;;;;;;;2;261073946;261073946;-75
2022/02/21 06:24:26;;;;;;;;;0.00;0.00;;;;;;;;2;288081283;288081283;-75
2022/02/21 06:32:42;;;;;;;;;0.00;0.00;;;;;;;;2;261077574;261077574;-75
2022/02/21 06:42:10;;;;;;;;;0.00;0.00;;;;;;;;2;288083953;288083953;-75
2022/02/21 06:50:26;;;;;;;;;0.00;0.00;;;;;;;;2;261078025;261078025;-75
2022/02/21 06:59:54;;;;;;;;;0.00;0.00;;;;;;;;2;288083480;288083480;-75
2022/02/21 07:08:10;;;;;;;;;0.00;0.00;;;;;;;;2;261073355;261073355;-75
2022/02/21 07:17:41;;;;;;;;;0.00;0.00;;;;;;;;2;288082808;288082808;-75
2022/02/21 07:25:57;;;;;;;;;0.00;0.00;;;;;;;;2;261077202;261077202;-75
2022/02/21 07:35:25;;;;;;;;;0.00;0.00;;;;;;;;2;288084190;288084190;-75
2022/02/21 07:43:40;;;;;;;;;0.00;0.00;;;;;;;;2;261078770;261078770;-75
2022/02/21 07:53:08;;;;;;;;;0.00;0.00;;;;;;;;2;288087695;288087695;-75
2022/02/21 08:01:23;;;;;;;;;0.00;0.00;;;;;;;;2;261076560;261076560;-75
2022/02/21 08:10:51;;;;;;;;;0.00;0.00;;;;;;;;2;288086178;288086178;-75
2022/02/21 08:19:07;;;;;;;;;0.00;0.00;;;;;;;;2;261076970;261076970;-74
2022/02/21 08:28:34;;;;;;;;;0.00;0.00;;;;;;;;2;288082885;288082885;-74
2022/02/21 08:36:49;;;;;;;;;0.00;0.00;;;;;;;;2;261075149;261075149;-75
2022/02/21 08:46:17;;;;;;;;;0.00;0.00;;;;;;;;2;288083714;288083714;-74
2022/02/21 08:54:35;;;;;;;;;0.00;0.00;;;;;;;;2;261074392;261074392;-72
2022/02/21 09:04:04;;;;;;;;;0.00;0.00;;;;;;;;2;288090478;288090478;-74
2022/02/21 09:12:20;;;;;;;;;0.00;0.00;;;;;;;;2;261076141;261076141;-75
2022/02/21 09:21:48;;;;;;;;;0.00;0.00;;;;;;;;2;288086159;288086159;-76
2022/02/21 09:30:05;;;;;;;;;0.00;0.00;;;;;;;;2;261077069;261077069;-76
2022/02/21 09:39:33;;;;;;;;;0.00;0.00;;;;;;;;2;288088443;288088443;-76
2022/02/21 09:47:50;;;;;;;;;0.00;0.00;;;;;;;;2;261078023;261078023;-75
2022/02/21 09:57:18;;;;;;;;;0.00;0.00;;;;;;;;2;288084766;288084766;-75
2022/02/21 10:05:34;;;;;;;;;0.00;0.00;;;;;;;;2;261075658;261075658;-75
2022/02/21 10:15:19;;;;;;;;;0.00;0.00;;;;;;;;2;288082521;288082521;-74
2022/02/21 10:23:35;;;;;;;;;0.00;0.00;;;;;;;;2;261077196;261077196;-74
2022/02/21 10:33:10;;;;;;;;;0.00;0.00;;;;;;;;2;288084509;288084509;-75
2022/02/21 10:41:39;;;;;;;;;0.00;0.00;;;;;;;;2;261076828;261076828;-74
2022/02/21 10:51:07;;;;;;;;;0.00;0.00;;;;;;;;2;288083270;288083270;-74
2022/02/21 10:59:26;;;;;;;;;0.00;0.00;;;;;;;;2;261076297;261076297;-75
2022/02/21 11:08:54;;;;;;;;;0.00;0.00;;;;;;;;2;288084984;288084984;-74
2022/02/21 11:17:10;;;;;;;;;0.00;0.00;;;;;;;;2;261074198;261074198;-74
2022/02/21 11:26:47;;;;;;;;;0.00;0.00;;;;;;;;2;288083519;288083519;-74
2022/02/21 11:35:13;;;;;;;;;0.00;0.00;;;;;;;;2;261073659;261073659;-74
2022/02/21 11:44:43;;;;;;;;;0.00;0.00;;;;;;;;2;288084091;288084091;-74
2022/02/21 11:53:13;;;;;;;;;0.00;0.00;;;;;;;;2;261073670;261073670;-74
2022/02/21 12:03:00;;;;;;;;;0.00;0.00;;;;;;;;2;288082974;288082974;-73
2022/02/21 12:11:18;;;;;;;;;0.00;0.00;;;;;;;;2;261075841;261075841;-74
2022/02/21 12:20:46;;;;;;;;;0.00;0.00;;;;;;;;2;288083083;288083083;-75
2022/02/21 12:29:08;;;;;;;;;0.00;0.00;;;;;;;;2;261077941;261077941;-74
2022/02/21 12:38:37;;;;;;;;;0.00;0.00;;;;;;;;2;288084387;288084387;-74
2022/02/21 12:46:56;;;;;;;;;0.00;0.00;;;;;;;;2;261076906;261076906;-74
2022/02/21 12:56:24;;;;;;;;;0.00;0.00;;;;;;;;2;288084767;288084767;-75
2022/02/21 13:04:39;;;;;;;;;0.00;0.00;;;;;;;;2;261077136;261077136;-75
2022/02/21 13:14:08;;;;;;;;;0.00;0.00;;;;;;;;2;288082856;288082856;-74
2022/02/21 13:22:29;;;;;;;;;0.00;0.00;;;;;;;;2;261075120;261075120;-75
2022/02/21 13:31:58;;;;;;;;;0.00;0.00;;;;;;;;2;288081154;288081154;-74
2022/02/21 13:40:13;;;;;;;;;0.00;0.00;;;;;;;;2;261076767;261076767;-75
2022/02/21 13:49:42;;;;;;;;;0.00;0.00;;;;;;;;2;288082912;288082912;-74
2022/02/21 13:58:05;;;;;;;;;0.00;0.00;;;;;;;;2;261074354;261074354;-74
2022/02/21 14:07:32;;;;;;;;;0.00;0.00;;;;;;;;2;288084468;288084468;-74
2022/02/21 14:15:50;;;;;;;;;0.00;0.00;;;;;;;;2;261076228;261076228;-74
2022/02/21 14:25:18;;;;;;;;;0.00;0.00;;;;;;;;2;288083796;288083796;-74
2022/02/21 14:33:34;;;;;;;;;0.00;0.00;;;;;;;;2;261076347;261076347;-75
2022/02/21 14:43:02;;;;;;;;;0.00;0.00;;;;;;;;2;288083911;288083911;-75
2022/02/21 14:51:20;;;;;;;;;0.00;0.00;;;;;;;;2;261076057;261076057;-75
2022/02/21 15:00:48;;;;;;;;;0.00;0.00;;;;;;;;2;288086395;288086395;-75
2022/02/21 15:09:03;;;;;;;;;0.00;0.00;;;;;;;;2;261076312;261076312;-75
2022/02/21 15:18:31;;;;;;;;;0.00;0.00;;;;;;;;2;288086872;288086872;-74
2022/02/21 15:26:48;;;;;;;;;0.00;0.00;;;;;;;;2;261076693;261076693;-75
2022/02/21 15:36:16;;;;;;;;;0.00;0.00;;;;;;;;2;288083081;288083081;-75
2022/02/21 15:44:32;;;;;;;;;0.00;0.00;;;;;;;;2;261078361;261078361;-76
2022/02/21 15:53:59;;;;;;;;;0.00;0.00;;;;;;;;2;288085809;288085809;-76
2022/02/21 16:02:15;;;;;;;;;0.00;0.00;;;;;;;;2;261076209;261076209;-79
2022/02/21 16:11:43;;;;;;;;;0.00;0.00;;;;;;;;2;288087918;288087918;-76
2022/02/21 16:19:59;;;;;;;;;0.00;0.00;;;;;;;;2;261076256;261076256;-79
2022/02/21 16:29:26;;;;;;;;;0.00;0.00;;;;;;;;2;288084459;288084459;-77
2022/02/21 16:37:42;;;;;;;;;0.00;0.00;;;;;;;;2;261074830;261074830;-76
2022/02/21 16:47:12;;;;;;;;;0.00;0.00;;;;;;;;2;288085284;288085284;-77
2022/02/21 16:55:28;;;;;;;;;0.00;0.00;;;;;;;;2;261077319;261077319;-76
2022/02/21 17:04:55;;;;;;;;;0.00;0.00;;;;;;;;2;288081115;288081115;-76
2022/02/21 17:13:11;;;;;;;;;0.00;0.00;;;;;;;;2;261075488;261075488;-76
2022/02/21 17:22:39;;;;;;;;;0.00;0.00;;;;;;;;2;288083219;288083219;-75
2022/02/21 17:30:56;;;;;;;;;0.00;0.00;;;;;;;;2;261076772;261076772;-76
2022/02/21 17:40:23;;;;;;;;;0.00;0.00;;;;;;;;2;288082645;288082645;-76
2022/02/21 17:48:39;;;;;;;;;0.00;0.00;;;;;;;;2;261077893;261077893;-76
2022/02/21 17:58:07;;;;;;;;;0.00;0.00;;;;;;;;2;288085298;288085298;-77
2022/02/21 18:06:22;;;;;;;;;0.00;0.00;;;;;;;;2;261077138;261077138;-82
2022/02/21 18:15:50;;;;;;;;;0.00;0.00;;;;;;;;2;288085314;288085314;-80
2022/02/21 18:24:06;;;;;;;;;0.00;0.00;;;;;;;;2;261076211;261076211;-80
2022/02/21 18:33:33;;;;;;;;;0.00;0.00;;;;;;;;2;288082567;288082567;-82
2022/02/21 18:41:49;;;;;;;;;0.00;0.00;;;;;;;;2;261076520;261076520;-83
2022/02/21 18:51:16;;;;;;;;;0.00;0.00;;;;;;;;2;288086040;288086040;-81
2022/02/21 18:59:32;;;;;;;;;0.00;0.00;;;;;;;;2;261076503;261076503;-80
2022/02/21 19:09:00;;;;;;;;;0.00;0.00;;;;;;;;2;288086583;288086583;-81
2022/02/21 19:17:19;;;;;;;;;0.00;0.00;;;;;;;;2;261078058;261078058;-82
2022/02/21 19:26:47;;;;;;;;;0.00;0.00;;;;;;;;2;288081432;288081432;-86
2022/02/21 19:35:03;;;;;;;;;0.00;0.00;;;;;;;;2;261078276;261078276;-87
2022/02/21 19:44:31;;;;;;;;;0.00;0.00;;;;;;;;2;288084353;288084353;-83
2022/02/21 19:52:46;;;;;;;;;0.00;0.00;;;;;;;;2;261076946;261076946;-83
2022/02/21 20:02:14;;;;;;;;;0.00;0.00;;;;;;;;2;288083127;288083127;-83
2022/02/21 20:10:29;;;;;;;;;0.00;0.00;;;;;;;;2;261078034;261078034;-83
2022/02/21 20:19:58;;;;;;;;;0.00;0.00;;;;;;;;2;288083098;288083098;-83
2022/02/21 20:28:14;;;;;;;;;0.00;0.00;;;;;;;;2;261078834;261078834;-83
2022/02/21 20:37:42;;;;;;;;;0.00;0.00;;;;;;;;2;288087574;288087574;-83
2022/02/21 20:45:58;;;;;;;;;0.00;0.00;;;;;;;;2;261076509;261076509;-81
2022/02/21 20:55:25;;;;;;;;;0.00;0.00;;;;;;;;2;288084532;288084532;-83
2022/02/21 21:03:41;;;;;;;;;0.00;0.00;;;;;;;;2;261077050;261077050;-82
2022/02/21 21:13:08;;;;;;;;;0.00;0.00;;;;;;;;2;288086075;288086075;-85
2022/02/21 21:21:24;;;;;;;;;0.00;0.00;;;;;;;;2;261076124;261076124;-83
2022/02/21 21:30:52;;;;;;;;;0.00;0.00;;;;;;;;2;288082902;288082902;-82
2022/02/21 21:39:07;;;;;;;;;0.00;0.00;;;;;;;;2;261078280;261078280;-83
2022/02/21 21:48:35;;;;;;;;;0.00;0.00;;;;;;;;2;288087335;288087335;-85
2022/02/21 21:56:50;;;;;;;;;0.00;0.00;;;;;;;;2;261079889;261079889;-83
2022/02/21 22:06:18;;;;;;;;;0.00;0.00;;;;;;;;2;288083274;288083274;-80
2022/02/21 22:14:33;;;;;;;;;0.00;0.00;;;;;;;;2;261078964;261078964;-81
2022/02/21 22:24:01;;;;;;;;;0.00;0.00;;;;;;;;2;288084704;288084704;-81
2022/02/21 22:32:18;;;;;;;;;0.00;0.00;;;;;;;;2;261078654;261078654;-81
2022/02/21 22:41:45;;;;;;;;;0.00;0.00;;;;;;;;2;288085029;288085029;-81
2022/02/21 22:50:01;;;;;;;;;0.00;0.00;;;;;;;;2;261082207;261082207;-79
2022/02/21 22:59:28;;;;;;;;;0.00;0.00;;;;;;;;2;288087016;288087016;-81
2022/02/21 23:08:00;;;;;;;;;0.00;0.00;;;;;;;;2;261077115;261077115;-79
2022/02/21 23:17:28;;;;;;;;;0.00;0.00;;;;;;;;2;288083638;288083638;-79
2022/02/21 23:25:43;;;;;;;;;0.00;0.00;;;;;;;;2;261076945;261076945;-77
2022/02/21 23:35:12;;;;;;;;;0.00;0.00;;;;;;;;2;288085956;288085956;-82
2022/02/21 23:43:28;;;;;;;;;0.00;0.00;;;;;;;;2;261075583;261075583;-83
2022/02/21 23:52:55;;;;;;;;;0.00;0.00;;;;;;;;2;288081775;288081775;-83
